Volcan De Timanfaya — ECHT — position and weather

sailwx.info

Track history (hours):
 
Tides and Currents Weather Stations Pressure Air Temp Water Temp Dewpoint Dewpoint Depression Visibility Wind Speed Wind Dir Waves Ship Positions

Volcan De Timanfaya

Last reported at 2017-Oct-19 12:16 UTC. Time now 2017-Oct-19 16:16 UTC.
Position N 28°09' W 015°25'.

Type: Passenger vessel. MMSI: 2414500.

Date/timePositionNaut miles runAvg speedWind from/ knotsBaromVisibWave heightAir tempDewpointWater temp
2017-Oct-19 12:16N 28°09' W 015°25'0 0.0
2017-Oct-19 12:00N 28°09' W 015°25'0 0.0
2017-Oct-19 11:30N 28°09' W 015°25'0 0.0
2017-Oct-19 11:00N 28°09' W 015°25'0 0.0
2017-Oct-19 10:30N 28°09' W 015°25'0 0.0
2017-Oct-19 10:00N 28°09' W 015°25'0 0.3
2017-Oct-19 09:30N 28°09' W 015°25'1 1.1
2017-Oct-19 09:00N 28°09' W 015°24'1 1.8
2017-Oct-19 08:30N 28°10' W 015°24'0 0.0
2017-Oct-19 08:00N 28°10' W 015°24'0 0.0
2017-Oct-19 07:30N 28°10' W 015°24'0 0.0
2017-Oct-19 07:00N 28°10' W 015°24'0 0.0
2017-Oct-19 06:30N 28°10' W 015°24'0 0.0
2017-Oct-19 06:00N 28°10' W 015°24'0 0.0
2017-Oct-19 05:30N 28°10' W 015°24'0 0.0
2017-Oct-19 05:00N 28°10' W 015°24'0 0.0
2017-Oct-19 04:30N 28°10' W 015°24'0 0.0
2017-Oct-19 04:00N 28°10' W 015°24'0 0.0
2017-Oct-19 03:30N 28°10' W 015°24'0 0.0
2017-Oct-19 03:00N 28°10' W 015°24'0 0.0
2017-Oct-19 02:30N 28°10' W 015°24'0 0.0
2017-Oct-19 02:00N 28°10' W 015°24'0 0.0
2017-Oct-19 01:30N 28°10' W 015°24'0 0.0
2017-Oct-19 01:00N 28°10' W 015°24'0 0.0
2017-Oct-19 00:30N 28°10' W 015°24'0 0.0
2017-Oct-19 00:00N 28°10' W 015°24'0 0.0
2017-Oct-18 23:30N 28°10' W 015°24'0 0.0
2017-Oct-18 23:00N 28°10' W 015°24'0 0.0
2017-Oct-18 22:30N 28°10' W 015°24'1 1.3
2017-Oct-18 22:01N 28°09' W 015°24'918.7
2017-Oct-18 21:31N 28°15' W 015°32'1020.3
2017-Oct-18 21:00N 28°19' W 015°43'1020.2
2017-Oct-18 20:30N 28°22' W 015°54'1120.5
2017-Oct-18 19:59N 28°26' W 016°05'917.9
2017-Oct-18 19:30N 28°29' W 016°14'0 0.3
2017-Oct-18 18:07N 28°28' W 016°15'1 4.8
2017-Oct-18 17:54N 28°29' W 016°14'819.5
2017-Oct-18 17:29N 28°26' W 016°05'1121.0
2017-Oct-18 16:59N 28°22' W 015°54'1021.0
2017-Oct-18 16:30N 28°18' W 015°43'1020.8
2017-Oct-18 16:00N 28°15' W 015°32'918.9
2017-Oct-18 15:30N 28°10' W 015°23'1 1.3
2017-Oct-18 15:00N 28°10' W 015°24'0 0.0
2017-Oct-18 14:00N 28°10' W 015°24'0 0.0
2017-Oct-18 13:30N 28°10' W 015°24'0 0.0
2017-Oct-18 13:00N 28°10' W 015°24'0 0.0
2017-Oct-18 12:30N 28°10' W 015°24'0 0.0
2017-Oct-18 12:00N 28°10' W 015°24'0 0.0
2017-Oct-18 11:30N 28°10' W 015°24'0 0.0
2017-Oct-18 11:00N 28°10' W 015°24'0 0.0
2017-Oct-18 10:30N 28°10' W 015°24'0 0.0
2017-Oct-18 10:00N 28°10' W 015°24'0 0.0
2017-Oct-18 09:30N 28°10' W 015°24'1 1.4
2017-Oct-18 09:00N 28°10' W 015°23'1019.5
2017-Oct-18 08:30N 28°15' W 015°33'1020.1
2017-Oct-18 08:00N 28°18' W 015°44'1020.3
2017-Oct-18 07:30N 28°22' W 015°55'1020.4
2017-Oct-18 07:00N 28°26' W 016°05'916.2
2017-Oct-18 06:29N 28°28' W 016°15'0 0.1
2017-Oct-18 05:50N 28°28' W 016°15'0 0.0
2017-Oct-18 05:30N 28°28' W 016°15'0 0.0
2017-Oct-18 05:00N 28°28' W 016°15'0 0.0
2017-Oct-18 00:22N 28°28' W 016°15'0 0.0
2017-Oct-17 23:45N 28°28' W 016°15'0 0.1
2017-Oct-17 22:06N 28°28' W 016°15'1 5.8
2017-Oct-17 21:53N 28°29' W 016°13'1120.3
2017-Oct-17 21:20N 28°25' W 016°02'720.3
2017-Oct-17 21:00N 28°23' W 015°54'1020.6
2017-Oct-17 20:30N 28°19' W 015°44'1020.4
2017-Oct-17 20:00N 28°15' W 015°33'1019.1
2017-Oct-17 19:31N 28°11' W 015°23'1 2.8
2017-Oct-17 19:01N 28°10' W 015°24'0 0.0
2017-Oct-17 18:30N 28°10' W 015°24'0 0.0
2017-Oct-17 18:00N 28°10' W 015°24'3 6.2
2017-Oct-17 17:30N 28°12' W 015°26'1020.1
2017-Oct-17 17:01N 28°16' W 015°37'1019.6
2017-Oct-17 16:30N 28°19' W 015°47'1019.5
2017-Oct-17 16:01N 28°23' W 015°57'1019.8
2017-Oct-17 15:30N 28°27' W 016°08'612.7
2017-Oct-17 15:00N 28°28' W 016°15'0 0.0
2017-Oct-17 14:26N 28°28' W 016°15'0 0.0
2017-Oct-17 13:58N 28°28' W 016°15'0 0.0
2017-Oct-17 13:30N 28°28' W 016°15'0 0.0
2017-Oct-17 12:55N 28°28' W 016°15'0 0.0
2017-Oct-17 11:26N 28°28' W 016°15'0 0.0
2017-Oct-17 10:54N 28°28' W 016°15'0 0.0
2017-Oct-17 10:26N 28°28' W 016°15'0 0.0
2017-Oct-17 10:00N 28°28' W 016°15'0 0.0
2017-Oct-17 09:29N 28°28' W 016°15'2 4.1
2017-Oct-17 08:57N 28°28' W 016°12'1021.4
2017-Oct-17 08:30N 28°25' W 016°02'1020.8
2017-Oct-17 08:00N 28°21' W 015°51'1020.5
2017-Oct-17 07:30N 28°17' W 015°40'1020.3
2017-Oct-17 07:00N 28°14' W 015°29'612.8
2017-Oct-17 06:30N 28°09' W 015°24'0 0.5
2017-Oct-17 05:54N 28°10' W 015°24'0 0.0
2017-Oct-17 05:21N 28°10' W 015°24'0 0.0
2017-Oct-17 04:54N 28°10' W 015°24'0 0.0
2017-Oct-17 04:24N 28°10' W 015°24'0 0.0
2017-Oct-17 03:51N 28°10' W 015°24'0 0.0
2017-Oct-17 03:09N 28°10' W 015°24'0 0.0
2017-Oct-17 02:54N 28°10' W 015°24'0 0.0
2017-Oct-17 02:24N 28°10' W 015°24'0 0.0
2017-Oct-17 01:54N 28°10' W 015°24'0 0.0
2017-Oct-17 01:24N 28°10' W 015°24'0 0.0
2017-Oct-17 00:57N 28°10' W 015°24'0 0.0
2017-Oct-17 00:27N 28°10' W 015°24'0 0.0
2017-Oct-16 23:57N 28°10' W 015°24'0 0.0
2017-Oct-16 23:27N 28°10' W 015°24'0 0.0
2017-Oct-16 22:57N 28°10' W 015°24'0 0.0
2017-Oct-16 22:30N 28°10' W 015°24'0 0.0
2017-Oct-16 22:00N 28°10' W 015°24'2 3.7
2017-Oct-16 21:30N 28°11' W 015°24'1020.3
2017-Oct-16 21:00N 28°15' W 015°35'1019.9
2017-Oct-16 20:30N 28°19' W 015°45'1020.0
2017-Oct-16 20:00N 28°23' W 015°56'1020.5
2017-Oct-16 19:30N 28°26' W 016°07'714.7
2017-Oct-16 19:00N 28°28' W 016°15'0 0.0
2017-Oct-16 18:30N 28°28' W 016°15'0 0.0
2017-Oct-16 18:00N 28°28' W 016°15'2 4.7
2017-Oct-16 17:30N 28°28' W 016°12'1121.0
2017-Oct-16 17:00N 28°25' W 016°01'1020.2
2017-Oct-16 16:30N 28°21' W 015°50'1020.0
2017-Oct-16 16:00N 28°17' W 015°40'1020.1
2017-Oct-16 15:30N 28°14' W 015°29'612.1
2017-Oct-16 15:00N 28°10' W 015°24'0 0.1
2017-Oct-16 14:30N 28°10' W 015°24'0 0.0
2017-Oct-16 13:30N 28°10' W 015°24'0 0.0
2017-Oct-16 13:00N 28°10' W 015°24'0 0.0
2017-Oct-16 12:30N 28°10' W 015°24'0 0.0
2017-Oct-16 12:00N 28°10' W 015°24'0 0.0
2017-Oct-16 11:30N 28°10' W 015°24'0 0.0
2017-Oct-16 11:00N 28°10' W 015°24'0 0.0
2017-Oct-16 10:30N 28°10' W 015°24'0 0.0
2017-Oct-16 10:00N 28°10' W 015°24'0 0.0
2017-Oct-16 09:30N 28°10' W 015°24'1 2.5
2017-Oct-16 09:00N 28°11' W 015°23'1020.1
2017-Oct-16 08:30N 28°15' W 015°34'1020.0
2017-Oct-16 08:00N 28°18' W 015°44'1020.2
2017-Oct-16 07:30N 28°22' W 015°55'1020.3
2017-Oct-16 07:00N 28°26' W 016°06'815.7
2017-Oct-16 06:29N 28°28' W 016°15'0 0.1
2017-Oct-16 06:00N 28°28' W 016°15'0 0.0
2017-Oct-16 05:30N 28°28' W 016°15'0 0.0
2017-Oct-16 05:01N 28°28' W 016°15'0 0.0
2017-Oct-16 04:31N 28°28' W 016°15'0 0.0
2017-Oct-16 04:00N 28°28' W 016°15'0 0.0
2017-Oct-16 03:31N 28°28' W 016°15'0 0.0
2017-Oct-16 03:01N 28°28' W 016°15'0 0.0
2017-Oct-16 02:31N 28°28' W 016°15'0 0.0
2017-Oct-16 02:01N 28°28' W 016°15'0 0.0
2017-Oct-16 01:31N 28°28' W 016°15'0 0.0
2017-Oct-16 01:01N 28°28' W 016°15'0 0.0
2017-Oct-16 00:31N 28°28' W 016°15'0 0.0
2017-Oct-16 00:01N 28°28' W 016°15'0 0.0
2017-Oct-15 23:31N 28°28' W 016°15'0 0.0
2017-Oct-15 23:01N 28°28' W 016°15'0 0.0
2017-Oct-15 22:30N 28°28' W 016°15'0 0.0
2017-Oct-15 21:54N 28°28' W 016°15'0 0.0
2017-Oct-15 21:30N 28°28' W 016°15'1 2.4
2017-Oct-15 21:00N 28°29' W 016°13'1120.7
2017-Oct-15 20:27N 28°25' W 016°01'920.8
2017-Oct-15 20:00N 28°22' W 015°51'1121.4
2017-Oct-15 19:30N 28°17' W 015°40'1121.4
2017-Oct-15 19:00N 28°13' W 015°29'611.6
2017-Oct-15 18:30N 28°10' W 015°24'0 0.0
2017-Oct-15 18:00N 28°10' W 015°24'0 0.0
2017-Oct-15 17:30N 28°10' W 015°24'0 0.9
2017-Oct-15 17:00N 28°09' W 015°24'1019.7
2017-Oct-15 16:30N 28°15' W 015°33'1121.1
2017-Oct-15 16:00N 28°18' W 015°44'1121.0
2017-Oct-15 15:31N 28°23' W 015°55'1121.3
2017-Oct-15 15:01N 28°26' W 016°06'8 6.0
2017-Oct-15 13:44N 28°28' W 016°15'0 0.0
2017-Oct-15 13:26N 28°28' W 016°15'0 0.0
2017-Oct-15 12:59N 28°28' W 016°15'0 0.0
2017-Oct-15 12:29N 28°28' W 016°15'0 0.0
2017-Oct-15 11:59N 28°28' W 016°15'0 0.0
2017-Oct-15 11:26N 28°28' W 016°15'0 0.0
2017-Oct-15 10:59N 28°28' W 016°15'0 0.0
2017-Oct-15 10:29N 28°28' W 016°15'0 0.0
2017-Oct-15 09:59N 28°28' W 016°15'1 1.3
2017-Oct-15 09:30N 28°29' W 016°14'1118.6
2017-Oct-15 08:54N 28°25' W 016°02'821.0
2017-Oct-15 08:30N 28°22' W 015°54'1121.3
2017-Oct-15 08:00N 28°18' W 015°42'1121.5
2017-Oct-15 07:30N 28°14' W 015°31'816.0
2017-Oct-15 07:00N 28°09' W 015°24'1 1.0
2017-Oct-15 06:29N 28°10' W 015°24'0 0.0
2017-Oct-15 05:59N 28°10' W 015°24'0 0.0
2017-Oct-15 05:29N 28°10' W 015°24'0 0.0
2017-Oct-15 04:59N 28°10' W 015°24'0 0.0
2017-Oct-15 04:29N 28°10' W 015°24'0 0.0
2017-Oct-15 03:59N 28°10' W 015°24'0 0.0
2017-Oct-15 03:29N 28°10' W 015°24'0 0.0
2017-Oct-15 02:59N 28°10' W 015°24'0 0.0
2017-Oct-15 02:29N 28°10' W 015°24'0 0.0
2017-Oct-15 01:59N 28°10' W 015°24'0 0.0
2017-Oct-15 01:29N 28°10' W 015°24'0 0.0
2017-Oct-15 00:59N 28°10' W 015°24'0 0.0
2017-Oct-15 00:29N 28°10' W 015°24'0 0.0
2017-Oct-14 23:59N 28°10' W 015°24'0 0.0
2017-Oct-14 23:20N 28°10' W 015°24'0 0.0
2017-Oct-14 22:50N 28°10' W 015°24'0 0.0
2017-Oct-14 22:30N 28°10' W 015°24'0 0.0
2017-Oct-14 22:00N 28°10' W 015°24'0 0.7
2017-Oct-14 21:31N 28°09' W 015°24'815.1
2017-Oct-14 21:01N 28°14' W 015°31'1121.3
2017-Oct-14 20:31N 28°18' W 015°42'1121.3
2017-Oct-14 20:01N 28°22' W 015°53'1121.9
2017-Oct-14 19:31N 28°26' W 016°05'917.6
2017-Oct-14 19:00N 28°28' W 016°15'0 0.6
2017-Oct-14 18:30N 28°28' W 016°15'0 0.0
2017-Oct-14 18:00N 28°28' W 016°15'0 0.0
2017-Oct-14 17:30N 28°28' W 016°15'0 0.0
2017-Oct-14 17:00N 28°28' W 016°15'0 0.0
2017-Oct-14 16:30N 28°28' W 016°15'0 0.0
2017-Oct-14 16:00N 28°28' W 016°15'0 0.0
2017-Oct-14 15:29N 28°28' W 016°15'0 0.0
2017-Oct-14 15:00N 28°28' W 016°15'0 0.0
2017-Oct-14 14:30N 28°28' W 016°15'0 0.0
2017-Oct-14 14:00N 28°28' W 016°15'0 0.0
2017-Oct-14 13:30N 28°28' W 016°15'0 0.0
2017-Oct-14 13:00N 28°28' W 016°15'0 0.0
2017-Oct-14 12:30N 28°28' W 016°15'0 0.0
2017-Oct-14 12:00N 28°28' W 016°15'0 0.0
2017-Oct-14 11:30N 28°28' W 016°15'0 0.0
2017-Oct-14 11:00N 28°28' W 016°15'0 0.0
2017-Oct-14 10:29N 28°28' W 016°15'0 0.0
2017-Oct-14 10:00N 28°28' W 016°15'2 3.0
2017-Oct-14 09:27N 28°29' W 016°13'1021.2
2017-Oct-14 08:57N 28°25' W 016°02'921.3
2017-Oct-14 08:31N 28°22' W 015°52'1121.3
2017-Oct-14 08:01N 28°17' W 015°41'1121.2
2017-Oct-14 07:31N 28°13' W 015°29'612.3
2017-Oct-14 07:00N 28°10' W 015°24'0 0.0
2017-Oct-14 06:30N 28°10' W 015°24'0 0.0
2017-Oct-14 06:00N 28°10' W 015°24'0 0.0
2017-Oct-14 05:30N 28°10' W 015°24'0 0.0
2017-Oct-14 05:00N 28°10' W 015°24'0 0.0
2017-Oct-14 04:30N 28°10' W 015°24'0 0.0
2017-Oct-14 04:00N 28°10' W 015°24'0 0.0
2017-Oct-14 03:30N 28°10' W 015°24'0 0.0
2017-Oct-14 03:00N 28°10' W 015°24'0 0.0
2017-Oct-14 02:30N 28°10' W 015°24'0 0.0
2017-Oct-14 02:00N 28°10' W 015°24'0 0.0
2017-Oct-14 01:30N 28°10' W 015°24'0 0.0
2017-Oct-14 01:00N 28°10' W 015°24'0 0.0
2017-Oct-14 00:30N 28°10' W 015°24'0 0.0
2017-Oct-14 00:00N 28°10' W 015°24'0 0.0
2017-Oct-13 23:30N 28°10' W 015°24'0 0.0
2017-Oct-13 23:00N 28°10' W 015°24'0 0.0
2017-Oct-13 22:30N 28°10' W 015°24'1 1.2
2017-Oct-13 22:00N 28°09' W 015°24'816.9
2017-Oct-13 21:31N 28°14' W 015°31'1020.6
2017-Oct-13 21:01N 28°18' W 015°42'1020.9
2017-Oct-13 20:30N 28°22' W 015°53'1020.9
2017-Oct-13 20:01N 28°25' W 016°05'918.3
2017-Oct-13 19:30N 28°29' W 016°14'0 1.0
2017-Oct-13 19:00N 28°28' W 016°15'0 0.0
2017-Oct-13 18:30N 28°28' W 016°15'2 3.5
2017-Oct-13 18:00N 28°29' W 016°13'1020.9
2017-Oct-13 17:30N 28°25' W 016°02'1020.5
2017-Oct-13 17:00N 28°21' W 015°51'1020.8
2017-Oct-13 16:30N 28°17' W 015°40'1020.4
2017-Oct-13 16:00N 28°14' W 015°29'612.3
2017-Oct-13 15:30N 28°09' W 015°24'0 0.3
2017-Oct-13 15:00N 28°10' W 015°24'0 0.0
2017-Oct-13 14:30N 28°10' W 015°24'0 0.0
2017-Oct-13 14:00N 28°10' W 015°24'0 0.3
2017-Oct-13 13:31N 28°09' W 015°24'815.8
2017-Oct-13 13:00N 28°12' W 015°16'1121.1
2017-Oct-13 12:30N 28°17' W 015°05'1020.8
2017-Oct-13 12:00N 28°22' W 014°55'1020.8
2017-Oct-13 11:30N 28°27' W 014°44'1020.7
2017-Oct-13 11:00N 28°32' W 014°34'1020.8
2017-Oct-13 10:30N 28°36' W 014°23'1020.8
2017-Oct-13 10:00N 28°41' W 014°13'1020.7
2017-Oct-13 09:30N 28°46' W 014°02'1221.2
2017-Oct-13 08:56N 28°49' W 013°49'921.4
2017-Oct-13 08:30N 28°53' W 013°39'916.8
2017-Oct-13 08:00N 28°58' W 013°32'0 0.0
2017-Oct-13 07:29N 28°58' W 013°32'0 0.0
2017-Oct-13 07:00N 28°58' W 013°32'0 0.0
2017-Oct-13 06:30N 28°58' W 013°32'0 0.0
2017-Oct-13 06:00N 28°58' W 013°32'0 0.0
2017-Oct-13 05:30N 28°58' W 013°32'4 8.5
2017-Oct-13 05:00N 28°55' W 013°35'918.2
2017-Oct-13 04:30N 28°51' W 013°44'917.2
2017-Oct-13 04:00N 28°48' W 013°53'917.7
2017-Oct-13 03:30N 28°45' W 014°03'917.5
2017-Oct-13 03:00N 28°41' W 014°12'917.5
2017-Oct-13 02:30N 28°37' W 014°21'917.7
2017-Oct-13 02:00N 28°33' W 014°30'917.5
2017-Oct-13 01:30N 28°29' W 014°39'917.7
2017-Oct-13 01:00N 28°25' W 014°47'917.7
2017-Oct-13 00:30N 28°21' W 014°57'917.7
2017-Oct-13 00:00N 28°17' W 015°06'917.3
2017-Oct-12 23:30N 28°13' W 015°14'917.6
2017-Oct-12 23:00N 28°09' W 015°23'1 1.7
2017-Oct-12 22:30N 28°10' W 015°24'0 0.0
2017-Oct-12 22:00N 28°10' W 015°24'0 0.0
2017-Oct-12 21:30N 28°10' W 015°24'0 0.0
2017-Oct-12 21:00N 28°10' W 015°24'0 0.0
2017-Oct-12 20:30N 28°10' W 015°24'0 0.0
2017-Oct-12 20:00N 28°10' W 015°24'0 0.0
2017-Oct-12 19:30N 28°10' W 015°24'0 0.0
2017-Oct-12 19:00N 28°10' W 015°24'0 0.0
2017-Oct-12 18:30N 28°10' W 015°24'0 0.0
2017-Oct-12 18:00N 28°10' W 015°24'0 0.8
2017-Oct-12 17:30N 28°10' W 015°23'1019.2
2017-Oct-12 17:00N 28°15' W 015°33'1020.6
2017-Oct-12 16:30N 28°18' W 015°44'1020.4
2017-Oct-12 16:00N 28°22' W 015°54'1020.6
2017-Oct-12 15:30N 28°26' W 016°05'817.0
2017-Oct-12 15:00N 28°28' W 016°15'0 0.6
2017-Oct-12 14:30N 28°28' W 016°15'0 0.0
2017-Oct-12 14:00N 28°28' W 016°15'1 1.7
2017-Oct-12 13:30N 28°29' W 016°14'2220.6
2017-Oct-12 12:26N 28°21' W 015°51'921.2
2017-Oct-12 12:01N 28°17' W 015°41'1121.2
2017-Oct-12 11:31N 28°14' W 015°30'713.5
2017-Oct-12 11:00N 28°09' W 015°24'0 0.4
2017-Oct-12 10:30N 28°10' W 015°24'0 0.0
2017-Oct-12 10:00N 28°10' W 015°24'0 0.0
2017-Oct-12 09:30N 28°10' W 015°24'1 2.6
2017-Oct-12 09:00N 28°11' W 015°24'1019.8
2017-Oct-12 08:30N 28°15' W 015°34'1020.5
2017-Oct-12 08:00N 28°19' W 015°45'1020.0
2017-Oct-12 07:30N 28°22' W 015°55'1320.3
2017-Oct-12 06:52N 28°27' W 016°09'514.4
2017-Oct-12 06:30N 28°28' W 016°15'0 0.1
2017-Oct-12 05:55N 28°28' W 016°15'0 0.0
2017-Oct-12 05:22N 28°28' W 016°15'0 0.0
2017-Oct-12 05:00N 28°28' W 016°15'0 0.0
2017-Oct-12 04:29N 28°28' W 016°15'0 0.0
2017-Oct-12 04:00N 28°28' W 016°15'0 0.0
2017-Oct-12 03:30N 28°28' W 016°15'0 0.0
2017-Oct-12 02:59N 28°28' W 016°15'0 0.0
2017-Oct-12 02:30N 28°28' W 016°15'0 0.0
2017-Oct-12 02:00N 28°28' W 016°15'0 0.0
2017-Oct-12 01:31N 28°28' W 016°15'0 0.0
2017-Oct-12 01:00N 28°28' W 016°15'0 0.0
2017-Oct-12 00:20N 28°28' W 016°15'0 0.0
2017-Oct-11 23:08N 28°28' W 016°15'0 0.0
2017-Oct-11 23:00N 28°28' W 016°15'0 0.0
2017-Oct-11 22:30N 28°28' W 016°15'0 0.3
2017-Oct-11 22:00N 28°28' W 016°15'814.5
2017-Oct-11 21:27N 28°26' W 016°06'920.4
2017-Oct-11 21:00N 28°23' W 015°56'1020.4
2017-Oct-11 20:30N 28°19' W 015°45'1020.2
2017-Oct-11 20:00N 28°16' W 015°35'1020.7
2017-Oct-11 19:30N 28°12' W 015°24'2 4.5
2017-Oct-11 19:00N 28°10' W 015°24'0 0.0
2017-Oct-11 18:30N 28°10' W 015°24'0 0.0
2017-Oct-11 18:00N 28°10' W 015°24'612.3
2017-Oct-11 17:30N 28°08' W 015°17'1020.6
2017-Oct-11 17:00N 28°07' W 015°06'16 1.0
2017-Oct-10 23:55N 28°10' W 015°24'0 0.0
2017-Oct-10 23:22N 28°10' W 015°24'0 0.0
2017-Oct-10 22:58N 28°10' W 015°24'0 0.0
2017-Oct-10 22:28N 28°10' W 015°24'0 0.0
2017-Oct-10 21:58N 28°10' W 015°24'0 0.0
2017-Oct-10 21:30N 28°10' W 015°24'0 0.0
2017-Oct-10 21:00N 28°10' W 015°24'0 0.0
2017-Oct-10 20:30N 28°10' W 015°24'0 0.0
2017-Oct-10 20:00N 28°10' W 015°24'0 0.0
2017-Oct-10 19:30N 28°10' W 015°24'0 0.0
2017-Oct-10 19:00N 28°10' W 015°24'0 0.0
2017-Oct-10 18:30N 28°10' W 015°24'0 0.0
2017-Oct-10 18:00N 28°10' W 015°24'1 1.6
2017-Oct-10 17:30N 28°10' W 015°24'1019.4
2017-Oct-10 17:00N 28°15' W 015°33'1019.9
2017-Oct-10 16:30N 28°19' W 015°44'1020.2
2017-Oct-10 16:00N 28°22' W 015°55'1020.3
2017-Oct-10 15:29N 28°26' W 016°06'815.6
2017-Oct-10 14:57N 28°28' W 016°15'0 0.0
2017-Oct-10 13:54N 28°28' W 016°15'0 0.0
2017-Oct-10 13:30N 28°28' W 016°15'0 0.0
2017-Oct-10 12:59N 28°28' W 016°15'0 0.0
2017-Oct-10 12:30N 28°28' W 016°15'0 0.0
2017-Oct-10 12:00N 28°28' W 016°15'0 0.0
2017-Oct-10 11:28N 28°28' W 016°15'0 0.0
2017-Oct-10 11:00N 28°28' W 016°15'0 0.0
2017-Oct-10 10:29N 28°28' W 016°15'0 0.0
2017-Oct-10 10:00N 28°28' W 016°15'0 0.0
2017-Oct-10 09:29N 28°28' W 016°15'1 2.8
2017-Oct-10 09:00N 28°29' W 016°13'1121.0
2017-Oct-10 08:29N 28°25' W 016°02'1021.1
2017-Oct-10 08:00N 28°21' W 015°51'1021.1
2017-Oct-10 07:30N 28°17' W 015°40'1020.8
2017-Oct-10 07:00N 28°13' W 015°29'611.7
2017-Oct-10 06:30N 28°10' W 015°24'0 0.1
2017-Oct-10 06:00N 28°10' W 015°24'0 0.0
2017-Oct-10 05:30N 28°10' W 015°24'0 0.0
2017-Oct-10 05:00N 28°10' W 015°24'0 0.0
2017-Oct-10 04:30N 28°10' W 015°24'0 0.0
2017-Oct-10 04:00N 28°10' W 015°24'0 0.0
2017-Oct-10 03:30N 28°10' W 015°24'0 0.0
2017-Oct-10 03:00N 28°10' W 015°24'0 0.0
2017-Oct-10 02:30N 28°10' W 015°24'0 0.0
2017-Oct-10 02:00N 28°10' W 015°24'0 0.0
2017-Oct-10 01:30N 28°10' W 015°24'0 0.0
2017-Oct-10 01:00N 28°10' W 015°24'0 0.0
2017-Oct-10 00:30N 28°10' W 015°24'0 0.0
2017-Oct-10 00:00N 28°10' W 015°24'0 0.0
2017-Oct-09 23:30N 28°10' W 015°24'0 0.0
2017-Oct-09 23:00N 28°10' W 015°24'0 0.0
2017-Oct-09 22:30N 28°10' W 015°24'0 0.0
2017-Oct-09 22:00N 28°10' W 015°24'2 4.1
2017-Oct-09 21:30N 28°12' W 015°24'1020.7
2017-Oct-09 21:00N 28°16' W 015°35'1020.2
2017-Oct-09 20:30N 28°19' W 015°46'1020.3
2017-Oct-09 20:00N 28°23' W 015°56'1020.5
2017-Oct-09 19:30N 28°27' W 016°07'7 9.2
2017-Oct-09 18:47N 28°28' W 016°15'0 0.0
2017-Oct-09 18:07N 28°28' W 016°15'0 0.1
2017-Oct-09 17:49N 28°28' W 016°15'2 6.3
2017-Oct-09 17:30N 28°29' W 016°12'1120.2
2017-Oct-09 16:56N 28°25' W 016°00'920.3
2017-Oct-09 16:30N 28°22' W 015°51'1020.2
2017-Oct-09 16:00N 28°18' W 015°40'1020.2
2017-Oct-09 15:30N 28°13' W 015°30'713.6
2017-Oct-09 15:00N 28°09' W 015°24'0 0.5
2017-Oct-09 14:30N 28°10' W 015°24'0 0.0
2017-Oct-09 14:00N 28°10' W 015°24'0 0.0
2017-Oct-09 13:30N 28°10' W 015°24'0 0.0
2017-Oct-09 13:00N 28°10' W 015°24'0 0.0
2017-Oct-09 12:30N 28°10' W 015°24'  
Track history (hours):
 
Tides and Currents Weather Stations Pressure Air Temp Water Temp Dewpoint Dewpoint Depression Visibility Wind Speed Wind Dir Waves Ship Positions

Volcan De Timanfaya

Last reported at 2017-Oct-19 12:16 UTC. Time now 2017-Oct-19 16:16 UTC.
Position N 28°09' W 015°25'.

Type: Passenger vessel. MMSI: 2414500.

Date/timePositionNaut miles runAvg speedWind from/ knotsBaromVisibWave heightAir tempDewpointWater temp
2017-Oct-19 12:16N 28°09' W 015°25'0 0.0
2017-Oct-19 12:00N 28°09' W 015°25'0 0.0
2017-Oct-19 11:30N 28°09' W 015°25'0 0.0
2017-Oct-19 11:00N 28°09' W 015°25'0 0.0
2017-Oct-19 10:30N 28°09' W 015°25'0 0.0
2017-Oct-19 10:00N 28°09' W 015°25'0 0.3
2017-Oct-19 09:30N 28°09' W 015°25'1 1.1
2017-Oct-19 09:00N 28°09' W 015°24'1 1.8
2017-Oct-19 08:30N 28°10' W 015°24'0 0.0
2017-Oct-19 08:00N 28°10' W 015°24'0 0.0
2017-Oct-19 07:30N 28°10' W 015°24'0 0.0
2017-Oct-19 07:00N 28°10' W 015°24'0 0.0
2017-Oct-19 06:30N 28°10' W 015°24'0 0.0
2017-Oct-19 06:00N 28°10' W 015°24'0 0.0
2017-Oct-19 05:30N 28°10' W 015°24'0 0.0
2017-Oct-19 05:00N 28°10' W 015°24'0 0.0
2017-Oct-19 04:30N 28°10' W 015°24'0 0.0
2017-Oct-19 04:00N 28°10' W 015°24'0 0.0
2017-Oct-19 03:30N 28°10' W 015°24'0 0.0
2017-Oct-19 03:00N 28°10' W 015°24'0 0.0
2017-Oct-19 02:30N 28°10' W 015°24'0 0.0
2017-Oct-19 02:00N 28°10' W 015°24'0 0.0
2017-Oct-19 01:30N 28°10' W 015°24'0 0.0
2017-Oct-19 01:00N 28°10' W 015°24'0 0.0
2017-Oct-19 00:30N 28°10' W 015°24'0 0.0
2017-Oct-19 00:00N 28°10' W 015°24'0 0.0
2017-Oct-18 23:30N 28°10' W 015°24'0 0.0
2017-Oct-18 23:00N 28°10' W 015°24'0 0.0
2017-Oct-18 22:30N 28°10' W 015°24'1 1.3
2017-Oct-18 22:01N 28°09' W 015°24'918.7
2017-Oct-18 21:31N 28°15' W 015°32'1020.3
2017-Oct-18 21:00N 28°19' W 015°43'1020.2
2017-Oct-18 20:30N 28°22' W 015°54'1120.5
2017-Oct-18 19:59N 28°26' W 016°05'917.9
2017-Oct-18 19:30N 28°29' W 016°14'0 0.3
2017-Oct-18 18:07N 28°28' W 016°15'1 4.8
2017-Oct-18 17:54N 28°29' W 016°14'819.5
2017-Oct-18 17:29N 28°26' W 016°05'1121.0
2017-Oct-18 16:59N 28°22' W 015°54'1021.0
2017-Oct-18 16:30N 28°18' W 015°43'1020.8
2017-Oct-18 16:00N 28°15' W 015°32'918.9
2017-Oct-18 15:30N 28°10' W 015°23'1 1.3
2017-Oct-18 15:00N 28°10' W 015°24'0 0.0
2017-Oct-18 14:00N 28°10' W 015°24'0 0.0
2017-Oct-18 13:30N 28°10' W 015°24'0 0.0
2017-Oct-18 13:00N 28°10' W 015°24'0 0.0
2017-Oct-18 12:30N 28°10' W 015°24'0 0.0
2017-Oct-18 12:00N 28°10' W 015°24'0 0.0
2017-Oct-18 11:30N 28°10' W 015°24'0 0.0
2017-Oct-18 11:00N 28°10' W 015°24'0 0.0
2017-Oct-18 10:30N 28°10' W 015°24'0 0.0
2017-Oct-18 10:00N 28°10' W 015°24'0 0.0
2017-Oct-18 09:30N 28°10' W 015°24'1 1.4
2017-Oct-18 09:00N 28°10' W 015°23'1019.5
2017-Oct-18 08:30N 28°15' W 015°33'1020.1
2017-Oct-18 08:00N 28°18' W 015°44'1020.3
2017-Oct-18 07:30N 28°22' W 015°55'1020.4
2017-Oct-18 07:00N 28°26' W 016°05'916.2
2017-Oct-18 06:29N 28°28' W 016°15'0 0.1
2017-Oct-18 05:50N 28°28' W 016°15'0 0.0
2017-Oct-18 05:30N 28°28' W 016°15'0 0.0
2017-Oct-18 05:00N 28°28' W 016°15'0 0.0
2017-Oct-18 00:22N 28°28' W 016°15'0 0.0
2017-Oct-17 23:45N 28°28' W 016°15'0 0.1
2017-Oct-17 22:06N 28°28' W 016°15'1 5.8
2017-Oct-17 21:53N 28°29' W 016°13'1120.3
2017-Oct-17 21:20N 28°25' W 016°02'720.3
2017-Oct-17 21:00N 28°23' W 015°54'1020.6
2017-Oct-17 20:30N 28°19' W 015°44'1020.4
2017-Oct-17 20:00N 28°15' W 015°33'1019.1
2017-Oct-17 19:31N 28°11' W 015°23'1 2.8
2017-Oct-17 19:01N 28°10' W 015°24'0 0.0
2017-Oct-17 18:30N 28°10' W 015°24'0 0.0
2017-Oct-17 18:00N 28°10' W 015°24'3 6.2
2017-Oct-17 17:30N 28°12' W 015°26'1020.1
2017-Oct-17 17:01N 28°16' W 015°37'1019.6
2017-Oct-17 16:30N 28°19' W 015°47'1019.5
2017-Oct-17 16:01N 28°23' W 015°57'1019.8
2017-Oct-17 15:30N 28°27' W 016°08'612.7
2017-Oct-17 15:00N 28°28' W 016°15'0 0.0
2017-Oct-17 14:26N 28°28' W 016°15'0 0.0
2017-Oct-17 13:58N 28°28' W 016°15'0 0.0
2017-Oct-17 13:30N 28°28' W 016°15'0 0.0
2017-Oct-17 12:55N 28°28' W 016°15'0 0.0
2017-Oct-17 11:26N 28°28' W 016°15'0 0.0
2017-Oct-17 10:54N 28°28' W 016°15'0 0.0
2017-Oct-17 10:26N 28°28' W 016°15'0 0.0
2017-Oct-17 10:00N 28°28' W 016°15'0 0.0
2017-Oct-17 09:29N 28°28' W 016°15'2 4.1
2017-Oct-17 08:57N 28°28' W 016°12'1021.4
2017-Oct-17 08:30N 28°25' W 016°02'1020.8
2017-Oct-17 08:00N 28°21' W 015°51'1020.5
2017-Oct-17 07:30N 28°17' W 015°40'1020.3
2017-Oct-17 07:00N 28°14' W 015°29'612.8
2017-Oct-17 06:30N 28°09' W 015°24'0 0.5
2017-Oct-17 05:54N 28°10' W 015°24'0 0.0
2017-Oct-17 05:21N 28°10' W 015°24'0 0.0
2017-Oct-17 04:54N 28°10' W 015°24'0 0.0
2017-Oct-17 04:24N 28°10' W 015°24'0 0.0
2017-Oct-17 03:51N 28°10' W 015°24'0 0.0
2017-Oct-17 03:09N 28°10' W 015°24'0 0.0
2017-Oct-17 02:54N 28°10' W 015°24'0 0.0
2017-Oct-17 02:24N 28°10' W 015°24'0 0.0
2017-Oct-17 01:54N 28°10' W 015°24'0 0.0
2017-Oct-17 01:24N 28°10' W 015°24'0 0.0
2017-Oct-17 00:57N 28°10' W 015°24'0 0.0
2017-Oct-17 00:27N 28°10' W 015°24'0 0.0
2017-Oct-16 23:57N 28°10' W 015°24'0 0.0
2017-Oct-16 23:27N 28°10' W 015°24'0 0.0
2017-Oct-16 22:57N 28°10' W 015°24'0 0.0
2017-Oct-16 22:30N 28°10' W 015°24'0 0.0
2017-Oct-16 22:00N 28°10' W 015°24'2 3.7
2017-Oct-16 21:30N 28°11' W 015°24'1020.3
2017-Oct-16 21:00N 28°15' W 015°35'1019.9
2017-Oct-16 20:30N 28°19' W 015°45'1020.0
2017-Oct-16 20:00N 28°23' W 015°56'1020.5
2017-Oct-16 19:30N 28°26' W 016°07'714.7
2017-Oct-16 19:00N 28°28' W 016°15'0 0.0
2017-Oct-16 18:30N 28°28' W 016°15'0 0.0
2017-Oct-16 18:00N 28°28' W 016°15'2 4.7
2017-Oct-16 17:30N 28°28' W 016°12'1121.0
2017-Oct-16 17:00N 28°25' W 016°01'1020.2
2017-Oct-16 16:30N 28°21' W 015°50'1020.0
2017-Oct-16 16:00N 28°17' W 015°40'1020.1
2017-Oct-16 15:30N 28°14' W 015°29'612.1
2017-Oct-16 15:00N 28°10' W 015°24'0 0.1
2017-Oct-16 14:30N 28°10' W 015°24'0 0.0
2017-Oct-16 13:30N 28°10' W 015°24'0 0.0
2017-Oct-16 13:00N 28°10' W 015°24'0 0.0
2017-Oct-16 12:30N 28°10' W 015°24'0 0.0
2017-Oct-16 12:00N 28°10' W 015°24'0 0.0
2017-Oct-16 11:30N 28°10' W 015°24'0 0.0
2017-Oct-16 11:00N 28°10' W 015°24'0 0.0
2017-Oct-16 10:30N 28°10' W 015°24'0 0.0
2017-Oct-16 10:00N 28°10' W 015°24'0 0.0
2017-Oct-16 09:30N 28°10' W 015°24'1 2.5
2017-Oct-16 09:00N 28°11' W 015°23'1020.1
2017-Oct-16 08:30N 28°15' W 015°34'1020.0
2017-Oct-16 08:00N 28°18' W 015°44'1020.2
2017-Oct-16 07:30N 28°22' W 015°55'1020.3
2017-Oct-16 07:00N 28°26' W 016°06'815.7
2017-Oct-16 06:29N 28°28' W 016°15'0 0.1
2017-Oct-16 06:00N 28°28' W 016°15'0 0.0
2017-Oct-16 05:30N 28°28' W 016°15'0 0.0
2017-Oct-16 05:01N 28°28' W 016°15'0 0.0
2017-Oct-16 04:31N 28°28' W 016°15'0 0.0
2017-Oct-16 04:00N 28°28' W 016°15'0 0.0
2017-Oct-16 03:31N 28°28' W 016°15'0 0.0
2017-Oct-16 03:01N 28°28' W 016°15'0 0.0
2017-Oct-16 02:31N 28°28' W 016°15'0 0.0
2017-Oct-16 02:01N 28°28' W 016°15'0 0.0
2017-Oct-16 01:31N 28°28' W 016°15'0 0.0
2017-Oct-16 01:01N 28°28' W 016°15'0 0.0
2017-Oct-16 00:31N 28°28' W 016°15'0 0.0
2017-Oct-16 00:01N 28°28' W 016°15'0 0.0
2017-Oct-15 23:31N 28°28' W 016°15'0 0.0
2017-Oct-15 23:01N 28°28' W 016°15'0 0.0
2017-Oct-15 22:30N 28°28' W 016°15'0 0.0
2017-Oct-15 21:54N 28°28' W 016°15'0 0.0
2017-Oct-15 21:30N 28°28' W 016°15'1 2.4
2017-Oct-15 21:00N 28°29' W 016°13'1120.7
2017-Oct-15 20:27N 28°25' W 016°01'920.8
2017-Oct-15 20:00N 28°22' W 015°51'1121.4
2017-Oct-15 19:30N 28°17' W 015°40'1121.4
2017-Oct-15 19:00N 28°13' W 015°29'611.6
2017-Oct-15 18:30N 28°10' W 015°24'0 0.0
2017-Oct-15 18:00N 28°10' W 015°24'0 0.0
2017-Oct-15 17:30N 28°10' W 015°24'0 0.9
2017-Oct-15 17:00N 28°09' W 015°24'1019.7
2017-Oct-15 16:30N 28°15' W 015°33'1121.1
2017-Oct-15 16:00N 28°18' W 015°44'1121.0
2017-Oct-15 15:31N 28°23' W 015°55'1121.3
2017-Oct-15 15:01N 28°26' W 016°06'8 6.0
2017-Oct-15 13:44N 28°28' W 016°15'0 0.0
2017-Oct-15 13:26N 28°28' W 016°15'0 0.0
2017-Oct-15 12:59N 28°28' W 016°15'0 0.0
2017-Oct-15 12:29N 28°28' W 016°15'0 0.0
2017-Oct-15 11:59N 28°28' W 016°15'0 0.0
2017-Oct-15 11:26N 28°28' W 016°15'0 0.0
2017-Oct-15 10:59N 28°28' W 016°15'0 0.0
2017-Oct-15 10:29N 28°28' W 016°15'0 0.0
2017-Oct-15 09:59N 28°28' W 016°15'1 1.3
2017-Oct-15 09:30N 28°29' W 016°14'1118.6
2017-Oct-15 08:54N 28°25' W 016°02'821.0
2017-Oct-15 08:30N 28°22' W 015°54'1121.3
2017-Oct-15 08:00N 28°18' W 015°42'1121.5
2017-Oct-15 07:30N 28°14' W 015°31'816.0
2017-Oct-15 07:00N 28°09' W 015°24'1 1.0
2017-Oct-15 06:29N 28°10' W 015°24'0 0.0
2017-Oct-15 05:59N 28°10' W 015°24'0 0.0
2017-Oct-15 05:29N 28°10' W 015°24'0 0.0
2017-Oct-15 04:59N 28°10' W 015°24'0 0.0
2017-Oct-15 04:29N 28°10' W 015°24'0 0.0
2017-Oct-15 03:59N 28°10' W 015°24'0 0.0
2017-Oct-15 03:29N 28°10' W 015°24'0 0.0
2017-Oct-15 02:59N 28°10' W 015°24'0 0.0
2017-Oct-15 02:29N 28°10' W 015°24'0 0.0
2017-Oct-15 01:59N 28°10' W 015°24'0 0.0
2017-Oct-15 01:29N 28°10' W 015°24'0 0.0
2017-Oct-15 00:59N 28°10' W 015°24'0 0.0
2017-Oct-15 00:29N 28°10' W 015°24'0 0.0
2017-Oct-14 23:59N 28°10' W 015°24'0 0.0
2017-Oct-14 23:20N 28°10' W 015°24'0 0.0
2017-Oct-14 22:50N 28°10' W 015°24'0 0.0
2017-Oct-14 22:30N 28°10' W 015°24'0 0.0
2017-Oct-14 22:00N 28°10' W 015°24'0 0.7
2017-Oct-14 21:31N 28°09' W 015°24'815.1
2017-Oct-14 21:01N 28°14' W 015°31'1121.3
2017-Oct-14 20:31N 28°18' W 015°42'1121.3
2017-Oct-14 20:01N 28°22' W 015°53'1121.9
2017-Oct-14 19:31N 28°26' W 016°05'917.6
2017-Oct-14 19:00N 28°28' W 016°15'0 0.6
2017-Oct-14 18:30N 28°28' W 016°15'0 0.0
2017-Oct-14 18:00N 28°28' W 016°15'0 0.0
2017-Oct-14 17:30N 28°28' W 016°15'0 0.0
2017-Oct-14 17:00N 28°28' W 016°15'0 0.0
2017-Oct-14 16:30N 28°28' W 016°15'0 0.0
2017-Oct-14 16:00N 28°28' W 016°15'0 0.0
2017-Oct-14 15:29N 28°28' W 016°15'0 0.0
2017-Oct-14 15:00N 28°28' W 016°15'0 0.0
2017-Oct-14 14:30N 28°28' W 016°15'0 0.0
2017-Oct-14 14:00N 28°28' W 016°15'0 0.0
2017-Oct-14 13:30N 28°28' W 016°15'0 0.0
2017-Oct-14 13:00N 28°28' W 016°15'0 0.0
2017-Oct-14 12:30N 28°28' W 016°15'0 0.0
2017-Oct-14 12:00N 28°28' W 016°15'0 0.0
2017-Oct-14 11:30N 28°28' W 016°15'0 0.0
2017-Oct-14 11:00N 28°28' W 016°15'0 0.0
2017-Oct-14 10:29N 28°28' W 016°15'0 0.0
2017-Oct-14 10:00N 28°28' W 016°15'2 3.0
2017-Oct-14 09:27N 28°29' W 016°13'1021.2
2017-Oct-14 08:57N 28°25' W 016°02'921.3
2017-Oct-14 08:31N 28°22' W 015°52'1121.3
2017-Oct-14 08:01N 28°17' W 015°41'1121.2
2017-Oct-14 07:31N 28°13' W 015°29'612.3
2017-Oct-14 07:00N 28°10' W 015°24'0 0.0
2017-Oct-14 06:30N 28°10' W 015°24'0 0.0
2017-Oct-14 06:00N 28°10' W 015°24'0 0.0
2017-Oct-14 05:30N 28°10' W 015°24'0 0.0
2017-Oct-14 05:00N 28°10' W 015°24'0 0.0
2017-Oct-14 04:30N 28°10' W 015°24'0 0.0
2017-Oct-14 04:00N 28°10' W 015°24'0 0.0
2017-Oct-14 03:30N 28°10' W 015°24'0 0.0
2017-Oct-14 03:00N 28°10' W 015°24'0 0.0
2017-Oct-14 02:30N 28°10' W 015°24'0 0.0
2017-Oct-14 02:00N 28°10' W 015°24'0 0.0
2017-Oct-14 01:30N 28°10' W 015°24'0 0.0
2017-Oct-14 01:00N 28°10' W 015°24'0 0.0
2017-Oct-14 00:30N 28°10' W 015°24'0 0.0
2017-Oct-14 00:00N 28°10' W 015°24'0 0.0
2017-Oct-13 23:30N 28°10' W 015°24'0 0.0
2017-Oct-13 23:00N 28°10' W 015°24'0 0.0
2017-Oct-13 22:30N 28°10' W 015°24'1 1.2
2017-Oct-13 22:00N 28°09' W 015°24'816.9
2017-Oct-13 21:31N 28°14' W 015°31'1020.6
2017-Oct-13 21:01N 28°18' W 015°42'1020.9
2017-Oct-13 20:30N 28°22' W 015°53'1020.9
2017-Oct-13 20:01N 28°25' W 016°05'918.3
2017-Oct-13 19:30N 28°29' W 016°14'0 1.0
2017-Oct-13 19:00N 28°28' W 016°15'0 0.0
2017-Oct-13 18:30N 28°28' W 016°15'2 3.5
2017-Oct-13 18:00N 28°29' W 016°13'1020.9
2017-Oct-13 17:30N 28°25' W 016°02'1020.5
2017-Oct-13 17:00N 28°21' W 015°51'1020.8
2017-Oct-13 16:30N 28°17' W 015°40'1020.4
2017-Oct-13 16:00N 28°14' W 015°29'612.3
2017-Oct-13 15:30N 28°09' W 015°24'0 0.3
2017-Oct-13 15:00N 28°10' W 015°24'0 0.0
2017-Oct-13 14:30N 28°10' W 015°24'0 0.0
2017-Oct-13 14:00N 28°10' W 015°24'0 0.3
2017-Oct-13 13:31N 28°09' W 015°24'815.8
2017-Oct-13 13:00N 28°12' W 015°16'1121.1
2017-Oct-13 12:30N 28°17' W 015°05'1020.8
2017-Oct-13 12:00N 28°22' W 014°55'1020.8
2017-Oct-13 11:30N 28°27' W 014°44'1020.7
2017-Oct-13 11:00N 28°32' W 014°34'1020.8
2017-Oct-13 10:30N 28°36' W 014°23'1020.8
2017-Oct-13 10:00N 28°41' W 014°13'1020.7
2017-Oct-13 09:30N 28°46' W 014°02'1221.2
2017-Oct-13 08:56N 28°49' W 013°49'921.4
2017-Oct-13 08:30N 28°53' W 013°39'916.8
2017-Oct-13 08:00N 28°58' W 013°32'0 0.0
2017-Oct-13 07:29N 28°58' W 013°32'0 0.0
2017-Oct-13 07:00N 28°58' W 013°32'0 0.0
2017-Oct-13 06:30N 28°58' W 013°32'0 0.0
2017-Oct-13 06:00N 28°58' W 013°32'0 0.0
2017-Oct-13 05:30N 28°58' W 013°32'4 8.5
2017-Oct-13 05:00N 28°55' W 013°35'918.2
2017-Oct-13 04:30N 28°51' W 013°44'917.2
2017-Oct-13 04:00N 28°48' W 013°53'917.7
2017-Oct-13 03:30N 28°45' W 014°03'917.5
2017-Oct-13 03:00N 28°41' W 014°12'917.5
2017-Oct-13 02:30N 28°37' W 014°21'917.7
2017-Oct-13 02:00N 28°33' W 014°30'917.5
2017-Oct-13 01:30N 28°29' W 014°39'917.7
2017-Oct-13 01:00N 28°25' W 014°47'917.7
2017-Oct-13 00:30N 28°21' W 014°57'917.7
2017-Oct-13 00:00N 28°17' W 015°06'917.3
2017-Oct-12 23:30N 28°13' W 015°14'917.6
2017-Oct-12 23:00N 28°09' W 015°23'1 1.7
2017-Oct-12 22:30N 28°10' W 015°24'0 0.0
2017-Oct-12 22:00N 28°10' W 015°24'0 0.0
2017-Oct-12 21:30N 28°10' W 015°24'0 0.0
2017-Oct-12 21:00N 28°10' W 015°24'0 0.0
2017-Oct-12 20:30N 28°10' W 015°24'0 0.0
2017-Oct-12 20:00N 28°10' W 015°24'0 0.0
2017-Oct-12 19:30N 28°10' W 015°24'0 0.0
2017-Oct-12 19:00N 28°10' W 015°24'0 0.0
2017-Oct-12 18:30N 28°10' W 015°24'0 0.0
2017-Oct-12 18:00N 28°10' W 015°24'0 0.8
2017-Oct-12 17:30N 28°10' W 015°23'1019.2
2017-Oct-12 17:00N 28°15' W 015°33'1020.6
2017-Oct-12 16:30N 28°18' W 015°44'1020.4
2017-Oct-12 16:00N 28°22' W 015°54'1020.6
2017-Oct-12 15:30N 28°26' W 016°05'817.0
2017-Oct-12 15:00N 28°28' W 016°15'0 0.6
2017-Oct-12 14:30N 28°28' W 016°15'0 0.0
2017-Oct-12 14:00N 28°28' W 016°15'1 1.7
2017-Oct-12 13:30N 28°29' W 016°14'2220.6
2017-Oct-12 12:26N 28°21' W 015°51'921.2
2017-Oct-12 12:01N 28°17' W 015°41'1121.2
2017-Oct-12 11:31N 28°14' W 015°30'713.5
2017-Oct-12 11:00N 28°09' W 015°24'0 0.4
2017-Oct-12 10:30N 28°10' W 015°24'0 0.0
2017-Oct-12 10:00N 28°10' W 015°24'0 0.0
2017-Oct-12 09:30N 28°10' W 015°24'1 2.6
2017-Oct-12 09:00N 28°11' W 015°24'1019.8
2017-Oct-12 08:30N 28°15' W 015°34'1020.5
2017-Oct-12 08:00N 28°19' W 015°45'1020.0
2017-Oct-12 07:30N 28°22' W 015°55'1320.3
2017-Oct-12 06:52N 28°27' W 016°09'514.4
2017-Oct-12 06:30N 28°28' W 016°15'0 0.1
2017-Oct-12 05:55N 28°28' W 016°15'0 0.0
2017-Oct-12 05:22N 28°28' W 016°15'0 0.0
2017-Oct-12 05:00N 28°28' W 016°15'0 0.0
2017-Oct-12 04:29N 28°28' W 016°15'0 0.0
2017-Oct-12 04:00N 28°28' W 016°15'0 0.0
2017-Oct-12 03:30N 28°28' W 016°15'0 0.0
2017-Oct-12 02:59N 28°28' W 016°15'0 0.0
2017-Oct-12 02:30N 28°28' W 016°15'0 0.0
2017-Oct-12 02:00N 28°28' W 016°15'0 0.0
2017-Oct-12 01:31N 28°28' W 016°15'0 0.0
2017-Oct-12 01:00N 28°28' W 016°15'0 0.0
2017-Oct-12 00:20N 28°28' W 016°15'0 0.0
2017-Oct-11 23:08N 28°28' W 016°15'0 0.0
2017-Oct-11 23:00N 28°28' W 016°15'0 0.0
2017-Oct-11 22:30N 28°28' W 016°15'0 0.3
2017-Oct-11 22:00N 28°28' W 016°15'814.5
2017-Oct-11 21:27N 28°26' W 016°06'920.4
2017-Oct-11 21:00N 28°23' W 015°56'1020.4
2017-Oct-11 20:30N 28°19' W 015°45'1020.2
2017-Oct-11 20:00N 28°16' W 015°35'1020.7
2017-Oct-11 19:30N 28°12' W 015°24'2 4.5
2017-Oct-11 19:00N 28°10' W 015°24'0 0.0
2017-Oct-11 18:30N 28°10' W 015°24'0 0.0
2017-Oct-11 18:00N 28°10' W 015°24'612.3
2017-Oct-11 17:30N 28°08' W 015°17'1020.6
2017-Oct-11 17:00N 28°07' W 015°06'16 1.0
2017-Oct-10 23:55N 28°10' W 015°24'0 0.0
2017-Oct-10 23:22N 28°10' W 015°24'0 0.0
2017-Oct-10 22:58N 28°10' W 015°24'0 0.0
2017-Oct-10 22:28N 28°10' W 015°24'0 0.0
2017-Oct-10 21:58N 28°10' W 015°24'0 0.0
2017-Oct-10 21:30N 28°10' W 015°24'0 0.0
2017-Oct-10 21:00N 28°10' W 015°24'0 0.0
2017-Oct-10 20:30N 28°10' W 015°24'0 0.0
2017-Oct-10 20:00N 28°10' W 015°24'0 0.0
2017-Oct-10 19:30N 28°10' W 015°24'0 0.0
2017-Oct-10 19:00N 28°10' W 015°24'0 0.0
2017-Oct-10 18:30N 28°10' W 015°24'0 0.0
2017-Oct-10 18:00N 28°10' W 015°24'1 1.6
2017-Oct-10 17:30N 28°10' W 015°24'1019.4
2017-Oct-10 17:00N 28°15' W 015°33'1019.9
2017-Oct-10 16:30N 28°19' W 015°44'1020.2
2017-Oct-10 16:00N 28°22' W 015°55'1020.3
2017-Oct-10 15:29N 28°26' W 016°06'815.6
2017-Oct-10 14:57N 28°28' W 016°15'0 0.0
2017-Oct-10 13:54N 28°28' W 016°15'0 0.0
2017-Oct-10 13:30N 28°28' W 016°15'0 0.0
2017-Oct-10 12:59N 28°28' W 016°15'0 0.0
2017-Oct-10 12:30N 28°28' W 016°15'0 0.0
2017-Oct-10 12:00N 28°28' W 016°15'0 0.0
2017-Oct-10 11:28N 28°28' W 016°15'0 0.0
2017-Oct-10 11:00N 28°28' W 016°15'0 0.0
2017-Oct-10 10:29N 28°28' W 016°15'0 0.0
2017-Oct-10 10:00N 28°28' W 016°15'0 0.0
2017-Oct-10 09:29N 28°28' W 016°15'1 2.8
2017-Oct-10 09:00N 28°29' W 016°13'1121.0
2017-Oct-10 08:29N 28°25' W 016°02'1021.1
2017-Oct-10 08:00N 28°21' W 015°51'1021.1
2017-Oct-10 07:30N 28°17' W 015°40'1020.8
2017-Oct-10 07:00N 28°13' W 015°29'611.7
2017-Oct-10 06:30N 28°10' W 015°24'0 0.1
2017-Oct-10 06:00N 28°10' W 015°24'0 0.0
2017-Oct-10 05:30N 28°10' W 015°24'0 0.0
2017-Oct-10 05:00N 28°10' W 015°24'0 0.0
2017-Oct-10 04:30N 28°10' W 015°24'0 0.0
2017-Oct-10 04:00N 28°10' W 015°24'0 0.0
2017-Oct-10 03:30N 28°10' W 015°24'0 0.0
2017-Oct-10 03:00N 28°10' W 015°24'0 0.0
2017-Oct-10 02:30N 28°10' W 015°24'0 0.0
2017-Oct-10 02:00N 28°10' W 015°24'0 0.0
2017-Oct-10 01:30N 28°10' W 015°24'0 0.0
2017-Oct-10 01:00N 28°10' W 015°24'0 0.0
2017-Oct-10 00:30N 28°10' W 015°24'0 0.0
2017-Oct-10 00:00N 28°10' W 015°24'0 0.0
2017-Oct-09 23:30N 28°10' W 015°24'0 0.0
2017-Oct-09 23:00N 28°10' W 015°24'0 0.0
2017-Oct-09 22:30N 28°10' W 015°24'0 0.0
2017-Oct-09 22:00N 28°10' W 015°24'2 4.1
2017-Oct-09 21:30N 28°12' W 015°24'1020.7
2017-Oct-09 21:00N 28°16' W 015°35'1020.2
2017-Oct-09 20:30N 28°19' W 015°46'1020.3
2017-Oct-09 20:00N 28°23' W 015°56'1020.5
2017-Oct-09 19:30N 28°27' W 016°07'7 9.2
2017-Oct-09 18:47N 28°28' W 016°15'0 0.0
2017-Oct-09 18:07N 28°28' W 016°15'0 0.1
2017-Oct-09 17:49N 28°28' W 016°15'2 6.3
2017-Oct-09 17:30N 28°29' W 016°12'1120.2
2017-Oct-09 16:56N 28°25' W 016°00'920.3
2017-Oct-09 16:30N 28°22' W 015°51'1020.2
2017-Oct-09 16:00N 28°18' W 015°40'1020.2
2017-Oct-09 15:30N 28°13' W 015°30'713.6
2017-Oct-09 15:00N 28°09' W 015°24'0 0.5
2017-Oct-09 14:30N 28°10' W 015°24'0 0.0
2017-Oct-09 14:00N 28°10' W 015°24'0 0.0
2017-Oct-09 13:30N 28°10' W 015°24'0 0.0
2017-Oct-09 13:00N 28°10' W 015°24'0 0.0
2017-Oct-09 12:30N 28°10' W 015°24'  

Dump ship's entire track history